createdAt,value
2023-11-29T01:01:35.361Z,41.00
2023-11-29T01:02:15.102Z,40.67
2023-11-29T01:02:49.044Z,40.00
2023-11-29T01:03:22.928Z,39.67
2023-11-29T01:03:56.652Z,38.67
2023-11-29T01:04:36.044Z,38.00
2023-11-29T01:05:09.817Z,38.00
2023-11-29T01:05:43.268Z,38.00
2023-11-29T01:06:16.846Z,37.33
2023-11-29T01:06:50.115Z,37.00
2023-11-29T01:07:23.785Z,37.00
2023-11-29T01:07:57.440Z,37.00
2023-11-29T01:08:31.134Z,37.00
2023-11-29T01:09:07.334Z,36.00
2023-11-29T01:09:40.663Z,36.00
2023-11-29T01:10:17.267Z,35.67
2023-11-29T01:10:50.730Z,34.67
2023-11-29T01:11:25.195Z,34.00
2023-11-29T01:11:59.637Z,34.00
2023-11-29T01:12:32.931Z,33.00
2023-11-29T01:13:07.578Z,32.67
2023-11-29T01:13:40.941Z,32.00
2023-11-29T01:14:14.538Z,31.00
2023-11-29T01:14:49.327Z,31.00
2023-11-29T01:15:23.240Z,31.00
2023-11-29T01:15:59.310Z,31.00
2023-11-29T01:16:32.879Z,30.00
2023-11-29T01:17:07.214Z,30.67
2023-11-29T01:17:40.981Z,31.00
2023-11-29T01:18:16.850Z,30.00
2023-11-29T01:18:50.500Z,30.00
2023-11-29T01:19:24.786Z,30.00
2023-11-29T01:19:58.134Z,30.00
2023-11-29T01:20:31.624Z,30.00
2023-11-29T01:21:05.369Z,30.00
2023-11-29T01:21:39.701Z,30.00
2023-11-29T01:22:12.977Z,30.00
2023-11-29T01:22:47.372Z,30.00
2023-11-29T01:23:24.900Z,30.00
2023-11-29T01:23:58.781Z,30.00
2023-11-29T01:24:32.344Z,30.00
2023-11-29T01:25:08.716Z,30.67
2023-11-29T01:25:42.747Z,31.00
2023-11-29T01:26:16.742Z,31.00
2023-11-29T01:26:50.059Z,31.00
2023-11-29T01:27:24.899Z,31.00
2023-11-29T01:27:58.219Z,31.00
2023-11-29T01:28:31.464Z,31.00
2023-11-29T01:29:05.034Z,31.00
2023-11-29T01:29:38.737Z,31.00
2023-11-29T01:30:12.668Z,31.33
2023-11-29T01:30:46.189Z,32.00
2023-11-29T01:31:20.219Z,32.00
2023-11-29T01:31:53.723Z,31.00
2023-11-29T01:32:27.254Z,31.00
2023-11-29T01:33:00.964Z,31.00
2023-11-29T01:33:35.244Z,31.00
2023-11-29T01:34:08.938Z,30.67
2023-11-29T01:34:44.268Z,30.00
2023-11-29T01:35:17.851Z,30.00
2023-11-29T01:35:51.603Z,30.00
2023-11-29T01:36:25.743Z,30.00
2023-11-29T01:36:59.214Z,29.67
2023-11-29T01:37:32.816Z,29.00
2023-11-29T01:38:07.294Z,29.00
2023-11-29T01:38:40.686Z,29.00
2023-11-29T01:39:16.999Z,29.00
2023-11-29T01:39:50.557Z,29.00
2023-11-29T01:40:25.085Z,29.00
2023-11-29T01:40:58.332Z,29.00
2023-11-29T01:41:34.016Z,28.67
2023-11-29T01:42:07.667Z,29.00
2023-11-29T01:42:41.220Z,29.00
2023-11-29T01:43:16.070Z,29.00
2023-11-29T01:43:49.633Z,29.00
2023-11-29T01:44:23.172Z,29.00
2023-11-29T01:44:56.866Z,28.33
2023-11-29T01:45:30.663Z,28.00
2023-11-29T01:46:05.503Z,28.00
2023-11-29T01:46:44.802Z,28.00
2023-11-29T01:47:18.962Z,28.00
2023-11-29T01:47:52.892Z,28.00
2023-11-29T01:48:27.072Z,28.00
2023-11-29T01:49:01.256Z,28.00
2023-11-29T01:49:34.673Z,28.00
2023-11-29T01:50:11.268Z,27.00
2023-11-29T01:50:46.736Z,27.00
2023-11-29T01:51:23.239Z,27.00
2023-11-29T01:51:57.047Z,27.00
2023-11-29T01:52:32.263Z,27.00
2023-11-29T01:53:06.305Z,27.00
2023-11-29T01:53:44.299Z,27.67
2023-11-29T01:54:18.267Z,28.00
2023-11-29T01:54:52.077Z,28.00
2023-11-29T01:55:29.798Z,28.00
2023-11-29T01:56:03.282Z,28.00
2023-11-29T01:56:36.826Z,28.00
2023-11-29T01:57:10.718Z,28.00
2023-11-29T01:57:44.858Z,28.00
2023-11-29T01:58:18.750Z,28.00
2023-11-29T01:58:53.664Z,28.00
2023-11-29T01:59:28.519Z,28.00
2023-11-29T02:00:02.086Z,28.00
2023-11-29T02:00:46.134Z,28.00
2023-11-29T02:01:20.206Z,29.00
2023-11-29T02:01:53.467Z,28.00
2023-11-29T02:02:28.153Z,28.33
2023-11-29T02:03:02.451Z,28.33
2023-11-29T02:03:36.150Z,28.00
2023-11-29T02:04:10.504Z,28.00
2023-11-29T02:04:44.821Z,28.33
2023-11-29T02:05:19.152Z,29.00
2023-11-29T02:05:52.749Z,29.00
2023-11-29T02:06:27.021Z,29.00
2023-11-29T02:07:00.696Z,29.00
2023-11-29T02:07:34.481Z,29.00
2023-11-29T02:08:09.683Z,29.00
2023-11-29T02:08:43.291Z,29.00
2023-11-29T02:09:19.800Z,29.00
2023-11-29T02:09:53.533Z,29.00
2023-11-29T02:10:27.413Z,29.00
2023-11-29T02:11:00.883Z,29.00
2023-11-29T02:11:40.670Z,29.67
2023-11-29T02:12:16.484Z,30.00
2023-11-29T02:12:50.100Z,30.00
2023-11-29T02:13:24.575Z,31.00
2023-11-29T02:13:58.367Z,31.67
2023-11-29T02:14:32.396Z,32.00
2023-11-29T02:15:06.592Z,32.00
2023-11-29T02:15:40.893Z,32.33
2023-11-29T02:16:17.728Z,32.00
2023-11-29T02:16:51.461Z,32.00
2023-11-29T02:17:25.189Z,32.00
2023-11-29T02:17:58.876Z,32.00
2023-11-29T02:18:35.281Z,32.00
2023-11-29T02:19:09.486Z,32.00
2023-11-29T02:19:42.750Z,32.00
2023-11-29T02:20:26.058Z,32.00
2023-11-29T02:20:59.913Z,32.00
2023-11-29T02:21:34.229Z,32.00
2023-11-29T02:22:07.597Z,32.00
2023-11-29T02:22:47.705Z,32.00
2023-11-29T02:23:45.043Z,32.00
2023-11-29T02:24:25.572Z,32.00
2023-11-29T02:24:59.101Z,32.00
2023-11-29T02:25:32.665Z,32.67
2023-11-29T02:26:09.372Z,33.00
2023-11-29T02:26:42.977Z,33.00
2023-11-29T02:27:16.709Z,33.00
2023-11-29T02:27:49.982Z,33.00
2023-11-29T02:28:24.177Z,33.00
2023-11-29T02:28:57.536Z,33.00
2023-11-29T02:29:33.809Z,33.00
2023-11-29T02:30:08.257Z,33.00
2023-11-29T02:30:41.900Z,33.00
2023-11-29T02:31:16.671Z,33.00
2023-11-29T02:31:50.313Z,33.67
2023-11-29T02:32:26.585Z,34.00
2023-11-29T02:33:00.086Z,34.00
2023-11-29T02:33:33.800Z,34.00
2023-11-29T02:34:07.151Z,34.00
2023-11-29T02:34:43.676Z,34.00
2023-11-29T02:35:17.283Z,35.00
2023-11-29T02:35:50.951Z,35.00
2023-11-29T02:36:24.306Z,35.00
2023-11-29T02:36:57.720Z,36.00
2023-11-29T02:37:31.272Z,36.00
2023-11-29T02:38:04.882Z,36.33
2023-11-29T02:38:38.707Z,36.33
2023-11-29T02:39:13.334Z,36.00
2023-11-29T02:39:46.645Z,36.00
2023-11-29T02:40:20.162Z,36.67
2023-11-29T02:40:54.067Z,36.67
2023-11-29T02:41:27.776Z,36.33
2023-11-29T02:42:01.487Z,37.00
2023-11-29T02:42:34.824Z,37.00
2023-11-29T02:43:08.409Z,37.00
2023-11-29T02:43:41.709Z,37.00
2023-11-29T02:44:16.532Z,37.00
2023-11-29T02:44:49.955Z,37.33
2023-11-29T02:45:23.548Z,38.00
2023-11-29T02:45:57.132Z,38.00
2023-11-29T02:46:30.765Z,38.00
2023-11-29T02:47:04.400Z,38.00
2023-11-29T02:47:38.011Z,38.00
2023-11-29T02:48:11.691Z,38.00
2023-11-29T02:48:46.188Z,38.00
2023-11-29T02:49:19.920Z,39.00
2023-11-29T02:49:53.482Z,39.00
2023-11-29T02:50:26.851Z,40.00
2023-11-29T02:51:03.474Z,41.00
2023-11-29T02:51:40.047Z,41.00
2023-11-29T02:52:16.125Z,41.67
2023-11-29T02:52:49.918Z,42.00
2023-11-29T02:53:23.490Z,42.00
2023-11-29T02:53:57.193Z,42.00
2023-11-29T02:54:30.811Z,42.00
2023-11-29T02:55:04.768Z,42.00
2023-11-29T02:55:38.294Z,42.00
2023-11-29T02:56:11.650Z,42.00
2023-11-29T02:56:45.827Z,42.00
2023-11-29T02:57:19.478Z,42.00
2023-11-29T02:57:53.008Z,42.00
2023-11-29T02:58:26.553Z,42.00
2023-11-29T02:59:00.100Z,42.00
2023-11-29T02:59:33.627Z,42.00
2023-11-29T03:00:08.011Z,42.00
2023-11-29T03:00:41.302Z,42.00
2023-11-29T03:01:14.730Z,42.00
2023-11-29T03:01:48.723Z,42.00
2023-11-29T03:02:22.435Z,42.00
2023-11-29T03:02:56.882Z,42.00
2023-11-29T03:03:30.362Z,41.00
2023-11-29T03:04:04.336Z,42.00
2023-11-29T03:04:37.981Z,42.00
2023-11-29T03:05:11.995Z,42.00
2023-11-29T03:05:45.823Z,42.00
2023-11-29T03:06:19.325Z,42.00
2023-11-29T03:06:52.842Z,42.67
2023-11-29T03:07:26.610Z,43.00
2023-11-29T03:07:59.938Z,43.33
2023-11-29T03:08:33.533Z,44.00
2023-11-29T03:09:08.095Z,44.00
2023-11-29T03:09:41.822Z,44.00
2023-11-29T03:10:18.029Z,44.00
2023-11-29T03:10:54.627Z,44.00
2023-11-29T03:11:28.438Z,44.00
2023-11-29T03:12:02.710Z,44.00
2023-11-29T03:12:37.400Z,44.00
2023-11-29T03:13:11.136Z,44.00
2023-11-29T03:13:44.479Z,44.00
2023-11-29T03:14:18.183Z,44.00
2023-11-29T03:14:51.744Z,44.00
2023-11-29T03:15:25.345Z,44.00
2023-11-29T03:16:03.804Z,44.00
2023-11-29T03:16:41.277Z,45.00
2023-11-29T03:17:15.352Z,45.00
2023-11-29T03:17:49.082Z,45.33
2023-11-29T03:18:23.267Z,46.00
2023-11-29T03:18:56.829Z,46.00
2023-11-29T03:19:30.206Z,46.00
2023-11-29T03:20:04.989Z,46.00
2023-11-29T03:20:39.259Z,46.00
2023-11-29T03:21:12.978Z,46.00
2023-11-29T03:21:46.445Z,46.00
2023-11-29T03:22:20.144Z,46.67
2023-11-29T03:22:53.710Z,50.33
2023-11-29T03:23:27.146Z,55.33
2023-11-29T03:24:00.716Z,57.33
2023-11-29T03:24:34.331Z,56.00
2023-11-29T03:25:08.617Z,55.33
2023-11-29T03:25:42.100Z,55.00
2023-11-29T03:26:16.908Z,54.33
2023-11-29T03:26:50.309Z,54.00
2023-11-29T03:27:23.676Z,53.00
2023-11-29T03:27:58.420Z,53.00
2023-11-29T03:28:32.131Z,53.00
2023-11-29T03:29:05.450Z,52.67
2023-11-29T03:29:38.772Z,52.00
2023-11-29T03:30:13.156Z,52.00
2023-11-29T03:30:46.478Z,52.00
2023-11-29T03:31:21.110Z,51.33
2023-11-29T03:31:54.665Z,51.00
2023-11-29T03:32:28.286Z,51.00
2023-11-29T03:33:01.677Z,50.00
2023-11-29T03:33:35.210Z,50.00
2023-11-29T03:34:09.087Z,50.00
2023-11-29T03:34:43.740Z,50.00
2023-11-29T03:35:17.452Z,50.00
2023-11-29T03:35:51.131Z,50.00
2023-11-29T03:36:24.678Z,50.00
2023-11-29T03:36:58.926Z,50.33
2023-11-29T03:37:32.218Z,51.00
2023-11-29T03:38:05.751Z,51.00
2023-11-29T03:38:43.117Z,51.00
2023-11-29T03:39:16.896Z,51.00
2023-11-29T03:39:51.672Z,51.00
2023-11-29T03:40:25.176Z,51.00
2023-11-29T03:40:58.957Z,51.67
2023-11-29T03:41:33.122Z,52.00
2023-11-29T03:42:06.643Z,52.00
2023-11-29T03:42:40.552Z,52.00
2023-11-29T03:43:16.043Z,53.00
2023-11-29T03:43:49.333Z,53.00
2023-11-29T03:44:22.738Z,53.00
2023-11-29T03:44:56.270Z,53.00
2023-11-29T03:45:29.803Z,54.00
2023-11-29T03:46:03.312Z,54.00
2023-11-29T03:46:36.915Z,54.00
2023-11-29T03:47:10.597Z,54.00
2023-11-29T03:47:44.694Z,54.33
2023-11-29T03:48:21.235Z,54.67
2023-11-29T03:48:54.833Z,55.00
2023-11-29T03:49:28.136Z,55.00
2023-11-29T03:50:05.038Z,55.00
2023-11-29T03:50:38.935Z,55.00
2023-11-29T03:51:16.154Z,60.67
2023-11-29T03:51:50.070Z,78.33
2023-11-29T03:52:25.526Z,74.33
2023-11-29T03:52:59.092Z,70.67
2023-11-29T03:53:32.891Z,69.00
2023-11-29T03:54:06.888Z,67.67
2023-11-29T03:54:40.151Z,66.00
2023-11-29T03:55:13.541Z,64.00
2023-11-29T03:55:50.866Z,80.33
2023-11-29T03:56:24.490Z,92.33
2023-11-29T03:56:58.094Z,82.67
2023-11-29T03:57:32.907Z,78.00
2023-11-29T03:58:08.484Z,75.67
2023-11-29T03:58:42.288Z,74.67
2023-11-29T03:59:16.883Z,74.00
2023-11-29T03:59:51.105Z,73.00
2023-11-29T04:00:25.261Z,72.33
2023-11-29T04:00:58.989Z,71.67
2023-11-29T04:01:33.929Z,70.33
2023-11-29T04:02:09.432Z,67.67
2023-11-29T04:02:43.613Z,66.67
2023-11-29T04:03:17.046Z,64.33
2023-11-29T04:03:50.578Z,64.00
2023-11-29T04:04:23.975Z,62.67
2023-11-29T04:04:57.438Z,61.00
2023-11-29T04:05:30.926Z,61.00
2023-11-29T04:06:05.044Z,60.00
2023-11-29T04:06:39.989Z,60.00
2023-11-29T04:07:13.967Z,60.00
2023-11-29T04:07:48.434Z,59.33
2023-11-29T04:08:22.160Z,59.00
2023-11-29T04:08:57.181Z,58.33
2023-11-29T04:09:32.048Z,57.67
2023-11-29T04:10:09.915Z,57.00
2023-11-29T04:10:44.853Z,57.00
2023-11-29T04:11:21.720Z,56.67
2023-11-29T04:11:55.435Z,55.67
2023-11-29T04:12:29.129Z,54.33
2023-11-29T04:13:02.989Z,54.00
2023-11-29T04:13:36.537Z,53.67
2023-11-29T04:14:10.021Z,53.33
2023-11-29T04:14:43.511Z,53.67
2023-11-29T04:15:17.079Z,53.00
2023-11-29T04:15:50.328Z,53.00
2023-11-29T04:16:26.616Z,52.00
2023-11-29T04:17:00.441Z,51.00
2023-11-29T04:17:37.341Z,50.67
2023-11-29T04:18:11.086Z,50.00
2023-11-29T04:18:44.624Z,50.33
2023-11-29T04:19:17.929Z,51.00
2023-11-29T04:19:51.494Z,50.00
2023-11-29T04:20:25.176Z,50.00
2023-11-29T04:21:01.880Z,50.00
2023-11-29T04:21:39.018Z,50.00
2023-11-29T04:22:12.578Z,50.00
2023-11-29T04:22:49.651Z,50.00
2023-11-29T04:23:22.985Z,50.00
2023-11-29T04:23:57.660Z,51.67
2023-11-29T04:24:31.211Z,52.00
2023-11-29T04:25:06.959Z,51.00
2023-11-29T04:25:41.197Z,50.00
2023-11-29T04:26:38.113Z,49.00
2023-11-29T04:27:11.673Z,48.00
2023-11-29T04:27:46.002Z,47.00
2023-11-29T04:28:19.338Z,47.00
2023-11-29T04:28:53.407Z,47.33
2023-11-29T04:29:27.176Z,48.00
2023-11-29T04:30:03.725Z,47.67
2023-11-29T04:30:38.216Z,48.00
2023-11-29T04:31:17.325Z,48.00
2023-11-29T04:31:50.823Z,48.00
2023-11-29T04:32:24.948Z,48.00
2023-11-29T04:33:01.161Z,48.67
2023-11-29T04:33:34.537Z,49.00
2023-11-29T04:34:18.217Z,50.00
2023-11-29T04:35:02.582Z,50.00
2023-11-29T04:35:36.166Z,50.00
2023-11-29T04:36:10.712Z,50.00
2023-11-29T04:36:45.231Z,50.00
2023-11-29T04:37:20.101Z,50.00
2023-11-29T04:37:53.539Z,50.00
2023-11-29T04:38:30.278Z,50.67
2023-11-29T04:39:06.471Z,51.00
2023-11-29T04:39:40.430Z,51.00
2023-11-29T04:40:14.613Z,51.00
2023-11-29T04:40:49.038Z,51.00
2023-11-29T04:41:24.051Z,51.00
2023-11-29T04:41:57.439Z,51.00
2023-11-29T04:42:31.033Z,50.67
2023-11-29T04:43:04.658Z,50.00
2023-11-29T04:43:38.942Z,50.00
2023-11-29T04:44:17.056Z,49.00
2023-11-29T04:44:50.730Z,49.33
2023-11-29T04:45:24.304Z,50.00
2023-11-29T04:45:58.069Z,50.33
2023-11-29T04:46:31.790Z,51.00
2023-11-29T04:47:05.304Z,51.00
2023-11-29T04:47:38.643Z,50.67
2023-11-29T04:48:12.029Z,50.00
2023-11-29T04:48:46.548Z,50.00
2023-11-29T04:49:20.070Z,49.67
2023-11-29T04:49:54.381Z,49.00
2023-11-29T04:50:27.917Z,49.00
2023-11-29T04:51:01.389Z,49.00
2023-11-29T04:51:35.150Z,49.00
2023-11-29T04:52:11.603Z,49.00
2023-11-29T04:52:45.312Z,49.00
2023-11-29T04:53:19.824Z,49.00
2023-11-29T04:53:54.576Z,50.00
2023-11-29T04:54:28.010Z,50.00
2023-11-29T04:55:02.780Z,50.67
2023-11-29T04:55:36.289Z,51.33
2023-11-29T04:56:10.090Z,52.33
2023-11-29T04:56:43.639Z,53.67
2023-11-29T04:57:17.051Z,54.00
2023-11-29T04:57:53.415Z,55.00
2023-11-29T04:58:28.398Z,55.00
2023-11-29T04:59:02.179Z,54.67
2023-11-29T04:59:38.412Z,54.00
2023-11-29T05:00:13.493Z,54.00
2023-11-29T05:00:48.972Z,53.33
2023-11-29T05:01:22.272Z,53.00
2023-11-29T05:01:55.806Z,52.33
2023-11-29T05:02:29.453Z,51.00
2023-11-29T05:03:03.233Z,50.00
2023-11-29T05:03:40.895Z,49.67
2023-11-29T05:04:15.285Z,49.67
2023-11-29T05:04:48.602Z,50.00
2023-11-29T05:05:22.343Z,50.00
2023-11-29T05:05:55.937Z,50.00
2023-11-29T05:06:29.675Z,50.00
2023-11-29T05:07:03.018Z,51.00
2023-11-29T05:07:37.474Z,51.00
2023-11-29T05:08:11.019Z,51.00
2023-11-29T05:08:44.602Z,50.00
2023-11-29T05:09:17.917Z,50.00
2023-11-29T05:09:51.593Z,50.00
2023-11-29T05:10:25.909Z,50.00
2023-11-29T05:11:02.233Z,50.00
2023-11-29T05:11:35.718Z,50.00
2023-11-29T05:12:09.432Z,50.00
2023-11-29T05:12:42.724Z,50.00
2023-11-29T05:13:16.935Z,50.00
2023-11-29T05:13:53.613Z,50.00
2023-11-29T05:14:27.314Z,50.00
2023-11-29T05:15:01.081Z,50.67
2023-11-29T05:15:35.891Z,51.00
2023-11-29T05:16:09.856Z,50.67
2023-11-29T05:16:43.398Z,50.00
2023-11-29T05:17:17.162Z,49.67
2023-11-29T05:17:50.846Z,49.00
2023-11-29T05:18:24.604Z,48.00
2023-11-29T05:18:58.587Z,48.00
2023-11-29T05:19:32.250Z,47.33
2023-11-29T05:20:10.339Z,47.00
2023-11-29T05:20:44.090Z,47.00
2023-11-29T05:21:18.625Z,47.00
2023-11-29T05:21:51.888Z,47.00
2023-11-29T05:22:25.540Z,47.00
2023-11-29T05:22:58.898Z,47.00
2023-11-29T05:23:32.648Z,47.00
2023-11-29T05:24:07.665Z,47.00
2023-11-29T05:24:43.311Z,46.00
2023-11-29T05:25:16.972Z,46.00
2023-11-29T05:25:53.815Z,46.00
2023-11-29T05:26:28.310Z,45.33
2023-11-29T05:27:01.929Z,45.00
2023-11-29T05:27:35.240Z,45.00
2023-11-29T05:28:11.157Z,45.00
2023-11-29T05:28:44.824Z,45.00
2023-11-29T05:29:21.134Z,44.33
2023-11-29T05:29:54.745Z,44.00
2023-11-29T05:30:32.610Z,44.00
2023-11-29T05:31:06.488Z,44.00
2023-11-29T05:31:40.179Z,44.00
2023-11-29T05:32:14.208Z,44.00
2023-11-29T05:32:49.333Z,45.00
2023-11-29T05:33:24.628Z,45.00
2023-11-29T05:33:58.061Z,45.00
2023-11-29T05:34:31.572Z,44.33
2023-11-29T05:35:05.344Z,44.00
2023-11-29T05:35:38.811Z,44.00
2023-11-29T05:36:12.445Z,44.00
2023-11-29T05:36:46.031Z,44.00
2023-11-29T05:37:19.576Z,43.00
2023-11-29T05:37:52.868Z,43.00
2023-11-29T05:38:26.757Z,42.00
2023-11-29T05:39:00.403Z,42.00
2023-11-29T05:39:33.782Z,41.33
2023-11-29T05:40:09.626Z,41.00
2023-11-29T05:40:43.097Z,41.00
2023-11-29T05:41:17.183Z,41.00
2023-11-29T05:41:50.561Z,42.00
2023-11-29T05:42:25.516Z,42.00
2023-11-29T05:42:59.647Z,43.00
2023-11-29T05:43:33.309Z,43.00
2023-11-29T05:44:06.711Z,44.00
2023-11-29T05:44:40.296Z,44.00
2023-11-29T05:45:15.228Z,44.00
2023-11-29T05:45:48.942Z,44.00
2023-11-29T05:46:22.933Z,44.00
2023-11-29T05:46:56.462Z,44.00
2023-11-29T05:47:31.364Z,44.00
2023-11-29T05:48:06.228Z,44.00
2023-11-29T05:48:39.898Z,44.33
2023-11-29T05:49:13.630Z,45.67
2023-11-29T05:49:48.622Z,45.33
2023-11-29T05:50:24.337Z,45.00
2023-11-29T05:50:57.719Z,45.00
2023-11-29T05:51:31.609Z,45.00
2023-11-29T05:52:07.821Z,45.00
2023-11-29T05:52:42.108Z,45.00
2023-11-29T05:53:18.856Z,45.00
2023-11-29T05:53:52.600Z,45.00
2023-11-29T05:54:26.186Z,45.00
2023-11-29T05:55:03.197Z,45.33
2023-11-29T05:55:37.036Z,46.67
2023-11-29T05:56:10.626Z,47.00
2023-11-29T05:56:44.269Z,47.33
2023-11-29T05:57:17.655Z,48.33
2023-11-29T05:57:51.278Z,50.67
2023-11-29T05:58:25.149Z,52.67
2023-11-29T05:58:58.507Z,53.00
2023-11-29T05:59:31.836Z,53.00
2023-11-29T06:00:49.499Z,54.00
2023-11-29T06:01:23.648Z,54.67
2023-11-29T06:01:59.785Z,55.67
2023-11-29T06:02:33.646Z,57.33
2023-11-29T06:03:08.561Z,58.33
2023-11-29T06:03:42.384Z,58.00
2023-11-29T06:04:19.297Z,58.00
2023-11-29T06:04:52.930Z,58.00
2023-11-29T06:05:26.738Z,58.00
2023-11-29T06:06:00.409Z,58.00
2023-11-29T06:06:34.128Z,59.00
2023-11-29T06:07:07.697Z,63.67
2023-11-29T06:07:42.370Z,66.00
2023-11-29T06:08:17.237Z,65.33
2023-11-29T06:08:51.490Z,65.00
2023-11-29T06:09:31.903Z,64.00
2023-11-29T06:10:07.408Z,62.67
2023-11-29T06:10:41.000Z,60.00
2023-11-29T06:11:17.723Z,58.00
2023-11-29T06:11:52.511Z,56.33
2023-11-29T06:12:26.545Z,55.33
2023-11-29T06:13:00.889Z,55.00
2023-11-29T06:13:37.993Z,55.00
2023-11-29T06:14:11.255Z,55.00
2023-11-29T06:14:47.460Z,55.00
2023-11-29T06:15:20.943Z,55.00
2023-11-29T06:15:54.526Z,54.67
2023-11-29T06:16:28.126Z,54.00
2023-11-29T06:17:05.772Z,54.00
2023-11-29T06:17:40.329Z,53.00
2023-11-29T06:18:16.944Z,53.00
2023-11-29T06:18:51.172Z,52.33
2023-11-29T06:19:24.498Z,52.00
2023-11-29T06:19:58.457Z,50.67
2023-11-29T06:20:32.117Z,50.00
2023-11-29T06:21:06.556Z,50.00
2023-11-29T06:21:39.878Z,50.00
2023-11-29T06:22:13.265Z,50.67
2023-11-29T06:22:49.443Z,51.00
2023-11-29T06:23:23.124Z,51.00
2023-11-29T06:23:56.760Z,51.33
2023-11-29T06:24:35.166Z,51.33
2023-11-29T06:25:09.500Z,51.00
2023-11-29T06:25:43.457Z,50.33
2023-11-29T06:26:19.839Z,49.67
2023-11-29T06:26:54.295Z,49.00
2023-11-29T06:27:32.071Z,49.00
2023-11-29T06:28:05.924Z,49.00
2023-11-29T06:28:41.494Z,49.00
2023-11-29T06:29:16.243Z,49.00
2023-11-29T06:29:49.917Z,48.67
2023-11-29T06:30:23.596Z,47.33
2023-11-29T06:30:57.984Z,46.00
2023-11-29T06:31:32.550Z,46.00
2023-11-29T06:32:06.676Z,46.00
2023-11-29T06:32:42.758Z,47.33
2023-11-29T06:33:17.162Z,48.67
2023-11-29T06:33:50.733Z,49.00
2023-11-29T06:34:25.079Z,49.00
2023-11-29T06:34:58.347Z,48.00
2023-11-29T06:35:31.892Z,48.00
2023-11-29T06:36:05.796Z,48.00
2023-11-29T06:36:39.157Z,48.00
2023-11-29T06:37:12.858Z,48.00
2023-11-29T06:37:53.867Z,48.00
2023-11-29T06:38:35.012Z,48.67
2023-11-29T06:39:11.033Z,49.67
2023-11-29T06:39:48.248Z,50.67
2023-11-29T06:40:22.393Z,52.67
2023-11-29T06:41:01.947Z,54.00
2023-11-29T06:41:39.596Z,53.33
2023-11-29T06:42:17.385Z,54.00
2023-11-29T06:42:50.751Z,54.00
2023-11-29T06:43:26.999Z,54.00
2023-11-29T06:44:00.609Z,54.00
2023-11-29T06:44:37.377Z,54.00
2023-11-29T06:45:12.092Z,54.00
2023-11-29T06:45:47.814Z,54.00
2023-11-29T06:46:23.306Z,53.00
2023-11-29T06:46:58.646Z,52.33
2023-11-29T06:47:33.372Z,52.00
2023-11-29T06:48:07.417Z,52.33
2023-11-29T06:48:41.124Z,53.00
2023-11-29T06:49:16.849Z,53.00
2023-11-29T06:49:53.248Z,53.67
2023-11-29T06:50:27.084Z,54.00
2023-11-29T06:51:04.756Z,53.67
2023-11-29T06:51:39.748Z,53.00
2023-11-29T06:52:19.503Z,53.00
2023-11-29T06:52:52.993Z,52.00
2023-11-29T06:53:26.598Z,50.33
2023-11-29T06:54:01.488Z,49.33
2023-11-29T06:54:35.236Z,48.67
2023-11-29T06:55:11.924Z,47.67
2023-11-29T06:55:45.205Z,47.00
2023-11-29T06:56:21.157Z,49.00
2023-11-29T06:56:54.801Z,55.00
2023-11-29T06:57:28.160Z,56.00
2023-11-29T06:58:08.037Z,56.00
2023-11-29T06:58:45.018Z,56.00
2023-11-29T06:59:21.452Z,56.67
2023-11-29T06:59:55.070Z,59.33
2023-11-29T07:00:28.868Z,63.33
2023-11-29T07:01:05.460Z,69.33
2023-11-29T07:01:41.104Z,70.67
2023-11-29T07:02:15.292Z,70.00
2023-11-29T07:02:50.494Z,69.00
2023-11-29T07:03:27.624Z,68.00
2023-11-29T07:04:01.429Z,68.00
2023-11-29T07:04:36.852Z,70.33
2023-11-29T07:05:11.903Z,70.33
2023-11-29T07:05:45.656Z,69.00
2023-11-29T07:06:24.253Z,68.00
2023-11-29T07:07:00.665Z,68.00
2023-11-29T07:07:34.453Z,67.00
2023-11-29T07:08:07.972Z,66.33
2023-11-29T07:08:41.599Z,64.33
2023-11-29T07:09:17.774Z,64.00
2023-11-29T07:09:53.739Z,63.33
2023-11-29T07:10:28.373Z,63.00
2023-11-29T07:11:05.429Z,61.67
2023-11-29T07:11:38.987Z,58.00
2023-11-29T07:12:12.757Z,55.33
2023-11-29T07:12:46.413Z,54.00
2023-11-29T07:13:19.994Z,54.00
2023-11-29T07:13:53.600Z,53.33
2023-11-29T07:14:27.562Z,52.33
2023-11-29T07:15:01.703Z,52.00
2023-11-29T07:15:35.286Z,52.00
2023-11-29T07:16:10.325Z,51.00
2023-11-29T07:16:43.919Z,51.00
2023-11-29T07:17:17.722Z,51.00
2023-11-29T07:17:51.441Z,51.00
2023-11-29T07:18:27.014Z,50.67
2023-11-29T07:19:00.603Z,50.00
2023-11-29T07:19:34.735Z,50.00
2023-11-29T07:20:09.136Z,50.00
2023-11-29T07:20:46.256Z,50.67
2023-11-29T07:21:21.113Z,51.67
2023-11-29T07:21:54.689Z,55.00
2023-11-29T07:22:28.366Z,59.67
2023-11-29T07:23:01.946Z,61.67
2023-11-29T07:23:38.080Z,61.00
2023-11-29T07:24:11.794Z,61.00
2023-11-29T07:24:48.428Z,59.00
2023-11-29T07:25:21.911Z,55.67
2023-11-29T07:25:55.863Z,52.00
2023-11-29T07:26:29.473Z,49.00
2023-11-29T07:27:02.959Z,48.33
2023-11-29T07:27:38.548Z,49.00
2023-11-29T07:28:12.590Z,51.00
2023-11-29T07:28:48.238Z,54.00
2023-11-29T07:29:21.648Z,55.67
2023-11-29T07:29:55.112Z,56.00
2023-11-29T07:30:28.992Z,56.33
2023-11-29T07:31:02.283Z,57.00
2023-11-29T07:31:35.871Z,57.00
2023-11-29T07:32:09.453Z,57.67
2023-11-29T07:32:44.665Z,59.00
2023-11-29T07:33:18.314Z,59.00
2023-11-29T07:33:55.503Z,58.00
2023-11-29T07:34:29.138Z,58.00
2023-11-29T07:35:03.181Z,58.00
2023-11-29T07:35:36.830Z,58.00
2023-11-29T07:36:15.412Z,58.00
2023-11-29T07:36:52.953Z,59.00
2023-11-29T07:37:26.520Z,58.00
2023-11-29T07:38:00.233Z,58.00
2023-11-29T07:38:34.231Z,58.00
2023-11-29T07:39:10.496Z,58.00
2023-11-29T07:39:46.741Z,57.67
2023-11-29T07:40:23.711Z,56.67
2023-11-29T07:40:57.546Z,54.33
2023-11-29T07:41:34.196Z,53.00
2023-11-29T07:42:10.062Z,54.00
2023-11-29T07:42:50.347Z,53.33
2023-11-29T07:43:24.166Z,53.00
2023-11-29T07:43:57.546Z,54.67
2023-11-29T07:44:30.835Z,67.00
2023-11-29T07:45:06.662Z,87.33
2023-11-29T07:45:40.494Z,97.67
2023-11-29T07:46:18.698Z,89.33
2023-11-29T07:46:54.901Z,79.00
2023-11-29T07:47:28.768Z,76.67
2023-11-29T07:48:02.696Z,75.67
2023-11-29T07:48:36.348Z,75.00
2023-11-29T07:49:19.164Z,73.67
2023-11-29T07:49:52.548Z,71.00
2023-11-29T07:50:26.402Z,69.00
2023-11-29T07:51:03.693Z,67.33
2023-11-29T07:51:37.065Z,65.33
2023-11-29T07:52:10.687Z,63.33
2023-11-29T07:52:44.267Z,62.67
2023-11-29T07:53:18.078Z,62.00
2023-11-29T07:53:51.890Z,61.00
2023-11-29T07:54:25.900Z,59.67
2023-11-29T07:54:59.502Z,58.67
2023-11-29T07:55:33.157Z,58.00
2023-11-29T07:56:07.947Z,56.67
2023-11-29T07:56:43.709Z,54.33
2023-11-29T07:57:17.070Z,53.00
2023-11-29T07:57:50.611Z,53.00
2023-11-29T07:58:28.333Z,53.00
2023-11-29T07:59:04.866Z,54.00
2023-11-29T07:59:38.456Z,55.33
2023-11-29T08:00:14.820Z,56.33
2023-11-29T08:00:49.085Z,57.67
2023-11-29T08:01:22.652Z,58.33
2023-11-29T08:01:56.903Z,63.33
2023-11-29T08:02:33.543Z,68.00
2023-11-29T08:03:06.954Z,71.00
2023-11-29T08:03:41.649Z,71.67
2023-11-29T08:04:18.831Z,71.67
2023-11-29T08:04:52.308Z,71.00
2023-11-29T08:05:28.914Z,71.00
2023-11-29T08:06:05.782Z,71.33
2023-11-29T08:06:39.227Z,73.67
2023-11-29T08:07:15.372Z,73.00
2023-11-29T08:07:48.988Z,74.00
2023-11-29T08:08:22.436Z,74.33
2023-11-29T08:08:57.201Z,75.00
2023-11-29T08:09:30.457Z,75.00
2023-11-29T08:10:04.692Z,74.00
2023-11-29T08:10:38.780Z,74.00
2023-11-29T08:11:12.773Z,72.67
2023-11-29T08:11:46.787Z,71.67
2023-11-29T08:12:21.212Z,69.33
2023-11-29T08:12:55.207Z,67.33
2023-11-29T08:13:31.442Z,67.00
2023-11-29T08:14:05.055Z,66.00
2023-11-29T08:14:41.696Z,64.67
2023-11-29T08:15:16.097Z,63.33
2023-11-29T08:15:49.766Z,62.33
2023-11-29T08:16:23.129Z,60.00
2023-11-29T08:16:59.515Z,57.67
2023-11-29T08:17:34.105Z,57.00
2023-11-29T08:18:08.733Z,57.00
2023-11-29T08:18:42.189Z,57.33
2023-11-29T08:19:17.744Z,58.00
2023-11-29T08:19:51.071Z,58.67
2023-11-29T08:20:24.707Z,59.00
2023-11-29T08:20:59.416Z,58.00
2023-11-29T08:21:32.767Z,58.00
2023-11-29T08:22:06.030Z,59.00
2023-11-29T08:22:39.328Z,59.00
2023-11-29T08:23:15.389Z,59.67
2023-11-29T08:23:49.955Z,60.00
2023-11-29T08:24:23.569Z,60.00
2023-11-29T08:24:56.899Z,60.00
2023-11-29T08:25:30.617Z,59.33
2023-11-29T08:26:05.987Z,58.00
2023-11-29T08:26:39.640Z,57.00
2023-11-29T08:27:13.202Z,56.33